Time;durP1;ratioP1;P1;durP2;ratioP2;P2;SDS_P1;SDS_P2;PMS_P1;PMS_P2;Temp;Humidity;BMP_temperature;BMP_pressure;BME280_temperature;BME280_humidity;BME280_pressure;Samples;Min_cycle;Max_cycle;Signal;HPM_P1;HPM_P2
2021/12/08 00:00:36;;;;;;;55.58;25.58;;;1.00;95.30;;;;;;5048414;28;20028;-78
2021/12/08 00:03:04;;;;;;;43.50;20.92;;;1.10;95.00;;;;;;4987257;28;20552;-76
2021/12/08 00:05:30;;;;;;;45.35;21.35;;;1.40;95.00;;;;;;5001705;28;20307;-76
2021/12/08 00:07:56;;;;;;;53.15;25.25;;;0.90;94.90;;;;;;5000683;28;20030;-78
2021/12/08 00:13:04;;;;;;;44.20;22.80;;;0.80;95.30;;;;;;5001679;28;20033;-77
2021/12/08 00:15:35;;;;;;;63.20;28.38;;;0.80;95.60;;;;;;5000838;28;20045;-74
2021/12/08 00:18:19;;;;;;;63.17;31.20;;;0.80;96.30;;;;;;5001613;28;20285;-75
2021/12/08 00:20:46;;;;;;;64.65;29.90;;;-0.70;96.20;;;;;;5001086;28;20050;-76
2021/12/08 00:23:15;;;;;;;70.65;34.42;;;1.40;97.00;;;;;;4984577;28;20050;-80
2021/12/08 00:25:41;;;;;;;69.47;34.30;;;0.80;97.20;;;;;;5000789;28;20046;-77
2021/12/08 00:28:08;;;;;;;72.40;33.70;;;0.70;97.30;;;;;;5001202;28;20046;-80
2021/12/08 00:30:36;;;;;;;70.55;34.50;;;0.70;97.50;;;;;;5000795;28;20077;-77
2021/12/08 00:33:02;;;;;;;70.53;35.33;;;0.60;97.70;;;;;;5000898;28;20077;-77
2021/12/08 00:35:28;;;;;;;68.00;33.42;;;0.60;97.70;;;;;;5002322;28;20029;-78
2021/12/08 00:37:57;;;;;;;68.00;31.88;;;0.70;97.70;;;;;;4985084;28;20034;-79
2021/12/08 00:40:25;;;;;;;66.13;32.33;;;0.70;97.50;;;;;;5039593;28;20099;-76
2021/12/08 00:42:51;;;;;;;82.55;36.53;;;0.70;97.50;;;;;;5025679;28;20453;-76
2021/12/08 00:45:18;;;;;;;205.68;73.15;;;0.70;97.40;;;;;;5043705;28;20029;-77
2021/12/08 00:47:45;;;;;;;79.85;38.88;;;0.60;98.00;;;;;;5045682;28;20522;-77
2021/12/08 00:50:12;;;;;;;69.07;33.80;;;0.60;97.90;;;;;;5046812;28;20079;-77
2021/12/08 00:52:39;;;;;;;76.28;35.00;;;0.60;97.80;;;;;;5046197;28;20269;-76
2021/12/08 00:55:08;;;;;;;66.25;31.98;;;0.70;97.90;;;;;;5046132;28;20092;-76
2021/12/08 00:57:36;;;;;;;69.30;33.78;;;0.60;97.70;;;;;;5045935;28;20027;-76
2021/12/08 01:00:07;;;;;;;63.13;31.95;;;0.60;97.70;;;;;;5027785;28;20458;-79
2021/12/08 01:02:33;;;;;;;66.38;31.70;;;0.60;97.70;;;;;;5046793;28;20021;-76
2021/12/08 01:05:00;;;;;;;64.05;30.92;;;0.60;97.40;;;;;;5046212;28;20017;-78
2021/12/08 01:07:26;;;;;;;65.72;30.77;;;0.60;97.40;;;;;;5046451;28;20077;-79
2021/12/08 01:09:51;;;;;;;66.68;31.17;;;0.60;97.30;;;;;;5046883;28;20067;-79
2021/12/08 01:12:17;;;;;;;59.10;29.45;;;0.70;97.30;;;;;;5045281;28;20040;-78
2021/12/08 01:14:43;;;;;;;63.28;30.50;;;0.70;97.30;;;;;;5046083;28;20016;-77
2021/12/08 01:17:09;;;;;;;73.00;36.15;;;0.70;97.20;;;;;;5045685;28;20021;-77
2021/12/08 01:19:35;;;;;;;67.07;32.83;;;0.70;97.20;;;;;;5048924;28;20089;-76
2021/12/08 01:22:01;;;;;;;65.95;30.90;;;0.70;97.10;;;;;;5031797;28;20520;-76
2021/12/08 01:24:27;;;;;;;60.60;29.35;;;0.70;96.70;;;;;;5050838;28;20394;-77
2021/12/08 01:26:54;;;;;;;59.53;29.75;;;0.80;96.70;;;;;;5048754;28;20021;-76
2021/12/08 01:29:21;;;;;;;60.17;29.25;;;0.70;96.70;;;;;;5047406;28;20021;-76
2021/12/08 01:31:46;;;;;;;48.53;25.50;;;0.70;96.60;;;;;;5047406;28;20017;-76
2021/12/08 01:34:13;;;;;;;50.83;25.83;;;0.70;96.90;;;;;;5029052;28;20331;-78
2021/12/08 01:36:39;;;;;;;52.92;26.52;;;1.10;97.10;;;;;;5046513;28;20242;-76
2021/12/08 01:39:06;;;;;;;64.68;29.63;;;0.70;97.20;;;;;;5028665;28;20066;-77
2021/12/08 01:41:33;;;;;;;70.35;35.60;;;0.70;97.20;;;;;;5046100;28;20091;-78
2021/12/08 01:46:43;;;;;;;80.07;38.78;;;0.70;96.90;;;;;;5046401;28;20031;-77
2021/12/08 01:49:09;;;;;;;74.78;35.42;;;0.70;97.00;;;;;;5045501;28;20399;-80
2021/12/08 01:51:35;;;;;;;68.88;32.90;;;0.70;97.10;;;;;;5046590;28;20017;-79
2021/12/08 01:54:02;;;;;;;64.50;28.95;;;0.70;97.30;;;;;;5046833;28;20021;-78
2021/12/08 01:56:30;;;;;;;52.97;25.83;;;0.70;97.50;;;;;;5045807;28;20028;-77
2021/12/08 01:58:57;;;;;;;46.85;22.48;;;0.70;97.60;;;;;;5027447;28;20329;-77
2021/12/08 02:01:26;;;;;;;49.38;23.05;;;0.70;97.30;;;;;;5045640;28;20037;-77
2021/12/08 02:03:52;;;;;;;48.90;23.50;;;0.70;97.90;;;;;;5045272;28;20450;-78
2021/12/08 02:06:20;;;;;;;50.25;24.40;;;0.60;98.00;;;;;;5046257;28;20036;-80
2021/12/08 02:08:48;;;;;;;45.75;22.83;;;0.60;98.40;;;;;;5044951;28;20017;-76
2021/12/08 02:11:14;;;;;;;46.03;22.65;;;0.60;98.50;;;;;;5045007;28;20024;-79
2021/12/08 02:13:42;;;;;;;51.63;24.48;;;0.60;98.40;;;;;;5045418;28;20024;-77
2021/12/08 02:16:12;;;;;;;47.15;24.42;;;0.60;98.50;;;;;;5045255;28;20017;-77
2021/12/08 02:18:38;;;;;;;47.17;24.70;;;0.60;98.40;;;;;;5044774;28;20231;-77
2021/12/08 02:21:20;;;;;;;52.53;24.10;;;0.50;98.30;;;;;;5027385;28;20033;-78
2021/12/08 02:23:46;;;;;;;49.42;23.67;;;0.60;98.20;;;;;;5044501;28;20111;-76
2021/12/08 02:26:12;;;;;;;45.55;21.85;;;0.50;98.20;;;;;;5045627;28;20544;-77
2021/12/08 02:28:37;;;;;;;41.53;20.00;;;0.60;98.00;;;;;;5045702;28;20021;-76
2021/12/08 02:31:07;;;;;;;42.72;18.45;;;0.50;97.90;;;;;;5046624;28;20304;-78
2021/12/08 02:49:57;;;;;;;39.80;19.67;;;0.30;98.10;;;;;;5048236;28;20056;-79
2021/12/08 02:52:23;;;;;;;45.08;20.38;;;0.30;98.10;;;;;;5050365;28;20036;-79
2021/12/08 02:54:51;;;;;;;41.05;19.17;;;0.30;98.20;;;;;;5050892;28;20112;-78
2021/12/08 02:57:23;;;;;;;36.63;19.95;;;0.20;98.30;;;;;;5031668;28;20055;-79
2021/12/08 02:59:49;;;;;;;31.15;17.38;;;0.20;98.10;;;;;;5050090;28;20036;-81
2021/12/08 03:02:15;;;;;;;37.50;19.38;;;0.10;98.20;;;;;;5048459;28;20017;-78
2021/12/08 03:04:41;;;;;;;38.75;19.10;;;0.10;98.00;;;;;;5048143;28;20233;-76
2021/12/08 03:07:07;;;;;;;37.58;19.52;;;0.00;98.10;;;;;;5049210;28;20021;-79
2021/12/08 03:09:33;;;;;;;35.00;17.45;;;-0.10;98.10;;;;;;5047519;28;20350;-75
2021/12/08 03:12:02;;;;;;;32.97;17.00;;;-0.10;97.90;;;;;;5049369;28;20344;-76
2021/12/08 03:14:30;;;;;;;30.92;15.13;;;-0.20;97.70;;;;;;5048567;28;20029;-76
2021/12/08 03:16:59;;;;;;;30.73;15.80;;;-0.20;97.90;;;;;;5036285;28;20021;-80
2021/12/08 03:19:26;;;;;;;30.65;16.02;;;-0.30;97.80;;;;;;5056792;28;20041;-79
2021/12/08 03:21:53;;;;;;;39.33;17.27;;;0.00;97.90;;;;;;5039331;28;20328;-78
2021/12/08 03:24:30;;;;;;;27.42;14.02;;;-0.40;97.90;;;;;;5058059;28;20021;-82
2021/12/08 03:29:42;;;;;;;26.02;13.50;;;-0.50;97.80;;;;;;5051788;28;20028;-75
2021/12/08 03:32:14;;;;;;;25.23;13.27;;;-0.60;98.20;;;;;;5049142;28;20397;-78
2021/12/08 03:34:52;;;;;;;26.42;12.40;;;-0.70;98.10;;;;;;5046567;28;20272;-78
2021/12/08 03:37:32;;;;;;;22.13;12.05;;;-0.80;98.30;;;;;;5043950;28;20033;-81
2021/12/08 03:40:00;;;;;;;22.75;11.70;;;-0.90;98.40;;;;;;5049512;28;20158;-78
2021/12/08 03:42:29;;;;;;;23.23;12.57;;;-0.90;98.40;;;;;;5048429;28;20104;-76
2021/12/08 03:44:57;;;;;;;22.23;11.65;;;-1.00;98.40;;;;;;5047550;28;20071;-77
2021/12/08 03:47:29;;;;;;;30.20;14.95;;;-0.40;98.70;;;;;;5048239;28;20471;-77
2021/12/08 03:49:59;;;;;;;31.55;16.20;;;-1.10;98.80;;;;;;5047940;28;20373;-76
2021/12/08 03:52:25;;;;;;;38.22;18.70;;;-1.10;98.80;;;;;;5049090;28;20029;-79
2021/12/08 03:54:51;;;;;;;43.05;20.60;;;-1.00;98.60;;;;;;5031565;28;20047;-75
2021/12/08 03:57:17;;;;;;;47.28;22.23;;;-1.00;98.30;;;;;;5049764;28;20021;-77
2021/12/08 03:59:43;;;;;;;44.15;22.17;;;-1.00;98.30;;;;;;5050423;28;20037;-76
2021/12/08 04:02:09;;;;;;;40.88;19.77;;;-1.00;98.30;;;;;;5050597;28;20031;-78
2021/12/08 04:04:43;;;;;;;39.17;18.80;;;-1.00;98.20;;;;;;5051039;28;20028;-77
2021/12/08 04:07:12;;;;;;;41.28;18.20;;;-1.10;97.70;;;;;;5053497;28;20245;-76
2021/12/08 04:09:41;;;;;;;33.10;17.38;;;-1.10;97.90;;;;;;5054718;28;20723;-77
2021/12/08 04:12:09;;;;;;;37.90;18.38;;;0.50;98.00;;;;;;5053039;28;20037;-78
2021/12/08 04:14:40;;;;;;;30.35;15.55;;;-0.90;97.20;;;;;;5051050;28;20508;-78
2021/12/08 04:17:14;;;;;;;24.50;13.32;;;-1.20;97.30;;;;;;5051965;28;20484;-78
2021/12/08 04:19:42;;;;;;;28.08;13.98;;;-1.20;96.90;;;;;;5051861;28;20541;-78
2021/12/08 04:22:13;;;;;;;28.17;14.38;;;-1.30;96.80;;;;;;5038630;28;20025;-80
2021/12/08 04:24:41;;;;;;;29.10;14.50;;;-1.40;97.10;;;;;;5059002;28;20114;-78
2021/12/08 04:27:11;;;;;;;24.83;12.63;;;-1.50;97.20;;;;;;5059774;28;20084;-81
2021/12/08 04:29:40;;;;;;;23.83;11.07;;;-1.60;97.30;;;;;;5060465;28;20040;-78
2021/12/08 04:32:15;;;;;;;20.83;11.38;;;-0.50;97.60;;;;;;5061086;28;20028;-77
2021/12/08 04:34:45;;;;;;;23.90;10.85;;;-1.60;97.70;;;;;;5061064;28;20036;-78
2021/12/08 04:37:20;;;;;;;23.08;10.98;;;-1.70;97.70;;;;;;5062487;28;20029;-77
2021/12/08 04:40:13;;;;;;;21.30;10.75;;;-1.80;97.80;;;;;;5063363;28;20053;-77
2021/12/08 04:45:13;;;;;;;21.48;11.23;;;-1.80;97.70;;;;;;5062592;28;20391;-76
2021/12/08 04:48:02;;;;;;;24.27;11.98;;;-1.80;97.30;;;;;;5045656;28;20084;-77
2021/12/08 04:50:40;;;;;;;21.50;11.00;;;-2.50;97.40;;;;;;5065552;28;20040;-75
2021/12/08 05:00:20;;;;;;;18.92;10.68;;;-1.10;97.20;;;;;;4983744;28;20037;-77
2021/12/08 05:09:38;;;;;;;25.27;11.75;;;-2.00;97.20;;;;;;4980126;28;20027;-76
2021/12/08 05:12:09;;;;;;;27.27;14.15;;;-2.00;96.50;;;;;;4982550;28;20023;-75
2021/12/08 05:14:45;;;;;;;22.05;10.45;;;-2.00;96.10;;;;;;4965196;28;20045;-76
2021/12/08 05:17:17;;;;;;;18.02;9.75;;;-2.00;96.40;;;;;;4980739;28;20027;-76
2021/12/08 05:19:47;;;;;;;17.48;8.68;;;-2.10;96.50;;;;;;4976580;28;20058;-75
2021/12/08 05:22:35;;;;;;;15.40;7.70;;;-2.20;96.60;;;;;;4979629;28;20023;-80
2021/12/08 05:25:08;;;;;;;16.33;8.50;;;-2.30;96.70;;;;;;4975374;28;20019;-76
2021/12/08 05:27:40;;;;;;;15.60;8.35;;;-2.20;96.90;;;;;;4980008;28;20069;-75
2021/12/08 05:30:11;;;;;;;18.08;9.35;;;-2.30;97.00;;;;;;4983520;28;20080;-75
2021/12/08 05:32:39;;;;;;;17.60;8.95;;;-3.80;96.80;;;;;;5014123;28;20098;-75
2021/12/08 05:35:08;;;;;;;24.42;10.95;;;-2.30;97.50;;;;;;5063287;28;20017;-78
2021/12/08 05:37:35;;;;;;;19.75;9.75;;;-2.30;97.10;;;;;;5054721;28;20021;-78
2021/12/08 05:40:05;;;;;;;18.50;9.27;;;-2.40;96.90;;;;;;5060738;28;20091;-76
2021/12/08 05:42:35;;;;;;;18.02;9.20;;;-2.40;96.70;;;;;;5063583;28;20017;-75
2021/12/08 05:45:11;;;;;;;15.70;8.45;;;-1.40;97.00;;;;;;5065070;28;20021;-75
2021/12/08 05:47:37;;;;;;;18.20;9.75;;;-2.50;96.80;;;;;;5064305;28;20047;-74
2021/12/08 05:50:24;;;;;;;21.35;11.30;;;-2.60;97.00;;;;;;5047695;28;20048;-75
2021/12/08 05:52:52;;;;;;;23.50;11.43;;;-2.60;97.10;;;;;;5059915;28;20017;-75
2021/12/08 05:55:21;;;;;;;24.05;13.35;;;-2.60;97.10;;;;;;5064567;28;20025;-76
2021/12/08 05:57:48;;;;;;;18.98;10.70;;;-2.60;97.20;;;;;;5056793;28;20037;-76
2021/12/08 06:00:28;;;;;;;21.15;9.77;;;-2.70;96.90;;;;;;5041290;28;20037;-79
2021/12/08 06:02:56;;;;;;;20.83;10.30;;;-2.80;97.20;;;;;;5055722;28;20511;-76
2021/12/08 06:05:22;;;;;;;26.83;14.90;;;-2.60;97.30;;;;;;5065383;28;20057;-77
2021/12/08 06:07:48;;;;;;;22.30;11.23;;;-1.50;97.30;;;;;;5071640;28;20033;-75
2021/12/08 06:10:21;;;;;;;21.02;10.40;;;-2.80;97.20;;;;;;5052576;28;20017;-75
2021/12/08 06:12:48;;;;;;;24.58;14.10;;;-2.90;97.00;;;;;;5067442;28;20009;-75
2021/12/08 06:15:14;;;;;;;21.17;11.30;;;-2.80;97.20;;;;;;5067776;28;20048;-75
2021/12/08 06:17:41;;;;;;;19.05;8.50;;;-2.90;96.70;;;;;;5066218;28;20102;-76
2021/12/08 06:20:11;;;;;;;18.60;8.82;;;-2.90;96.90;;;;;;5043424;28;20064;-76
2021/12/08 06:22:39;;;;;;;17.65;8.85;;;-2.90;97.10;;;;;;5063298;28;20086;-77
2021/12/08 06:25:06;;;;;;;18.73;9.15;;;-3.50;97.10;;;;;;5066516;28;20206;-76
2021/12/08 06:27:32;;;;;;;17.25;9.43;;;-3.20;97.30;;;;;;5069309;28;20027;-77
2021/12/08 06:30:18;;;;;;;16.23;8.57;;;0.00;98.30;;;;;;5049053;28;20314;-77
2021/12/08 06:32:44;;;;;;;17.00;8.70;;;-3.00;97.40;;;;;;5066479;28;20032;-77
2021/12/08 06:35:16;;;;;;;22.85;10.38;;;-2.50;97.70;;;;;;5065899;28;20037;-75
2021/12/08 06:37:44;;;;;;;24.55;10.95;;;-2.50;97.70;;;;;;5067618;28;20304;-76
2021/12/08 06:40:20;;;;;;;19.77;10.15;;;-2.90;97.40;;;;;;5069628;28;20047;-76
2021/12/08 06:42:51;;;;;;;22.20;12.55;;;-2.90;97.30;;;;;;5069873;28;20009;-78
2021/12/08 06:45:30;;;;;;;18.17;9.45;;;-0.60;97.90;;;;;;5051991;28;20016;-76
2021/12/08 06:47:58;;;;;;;18.38;8.90;;;-2.90;97.20;;;;;;5070812;28;20112;-75
2021/12/08 06:50:28;;;;;;;21.88;10.25;;;-2.90;97.20;;;;;;5061808;28;20029;-75
2021/12/08 06:52:56;;;;;;;18.60;10.10;;;-2.90;97.00;;;;;;5065974;28;20027;-76
2021/12/08 06:55:36;;;;;;;26.52;12.50;;;-2.00;97.30;;;;;;5066667;28;20021;-76
2021/12/08 06:58:10;;;;;;;18.48;9.60;;;-2.80;97.10;;;;;;5059042;28;20108;-76
2021/12/08 07:01:20;;;;;;;19.35;9.77;;;-2.90;97.10;;;;;;5060290;28;20031;-75
2021/12/08 07:04:36;;;;;;;19.42;10.05;;;-2.90;97.10;;;;;;5061720;28;20024;-75
2021/12/08 07:06:58;;;;;;;21.42;9.88;;;-2.80;97.10;;;;;;5046548;28;20033;-78
2021/12/08 07:10:00;;;;;;;20.85;9.98;;;-2.70;97.20;;;;;;5039388;28;20116;-75
2021/12/08 07:12:40;;;;;;;18.75;9.40;;;-2.80;97.20;;;;;;4994242;28;20085;-76
2021/12/08 07:15:50;;;;;;;17.88;9.68;;;-2.80;97.20;;;;;;4991962;28;20033;-75
2021/12/08 07:18:24;;;;;;;22.02;9.75;;;-2.80;97.50;;;;;;4919239;29;20020;-76
2021/12/08 07:20:56;;;;;;;19.88;9.85;;;-2.80;97.40;;;;;;4920002;29;20091;-76
2021/12/08 07:23:26;;;;;;;19.88;9.55;;;-2.70;97.00;;;;;;4919859;29;20032;-77
2021/12/08 07:25:58;;;;;;;21.58;10.32;;;-1.70;97.20;;;;;;4919167;29;20024;-77
2021/12/08 07:28:26;;;;;;;18.30;9.52;;;-2.50;96.90;;;;;;4901369;29;20119;-76
2021/12/08 07:31:02;;;;;;;19.30;8.88;;;-2.50;96.60;;;;;;4918891;29;20052;-76
2021/12/08 07:33:30;;;;;;;19.38;9.20;;;-2.30;96.80;;;;;;4916863;29;20016;-76
2021/12/08 07:36:02;;;;;;;18.85;9.55;;;-2.30;96.20;;;;;;4918014;29;20064;-76
2021/12/08 07:38:30;;;;;;;19.60;8.82;;;-2.20;96.30;;;;;;4918420;29;20072;-79
2021/12/08 07:41:15;;;;;;;21.25;10.50;;;-2.10;96.00;;;;;;4918406;29;20039;-79
2021/12/08 07:44:01;;;;;;;20.40;10.60;;;-2.10;95.80;;;;;;4919327;29;20048;-75
2021/12/08 07:46:33;;;;;;;20.88;10.63;;;-2.00;95.80;;;;;;4923945;29;20271;-75
2021/12/08 07:49:08;;;;;;;46.42;22.00;;;-1.80;95.70;;;;;;4993968;28;20098;-77
2021/12/08 07:51:41;;;;;;;46.35;21.83;;;-1.40;96.60;;;;;;5061584;28;20025;-81
2021/12/08 07:54:12;;;;;;;40.83;19.00;;;-1.50;95.50;;;;;;5060857;28;20123;-75
2021/12/08 07:56:40;;;;;;;35.17;16.45;;;0.00;95.50;;;;;;5065525;28;20024;-77
2021/12/08 07:59:27;;;;;;;46.15;22.90;;;-1.10;94.90;;;;;;5047686;28;20037;-75
2021/12/08 08:02:10;;;;;;;58.72;26.95;;;-1.00;95.10;;;;;;5047646;28;20088;-77
2021/12/08 08:04:45;;;;;;;43.65;22.95;;;-0.30;94.90;;;;;;5067661;28;20108;-76
2021/12/08 08:07:16;;;;;;;42.38;18.80;;;-0.70;94.20;;;;;;5069048;28;20048;-76
2021/12/08 08:09:46;;;;;;;36.20;19.25;;;-0.50;94.20;;;;;;5068267;28;20208;-77
2021/12/08 08:12:17;;;;;;;32.35;16.42;;;-0.40;93.90;;;;;;5068629;28;20017;-76
2021/12/08 08:15:06;;;;;;;29.02;15.70;;;-0.20;93.60;;;;;;5066152;28;20073;-75
2021/12/08 08:17:44;;;;;;;21.48;11.15;;;-0.10;93.20;;;;;;5063259;28;20028;-76
2021/12/08 08:20:24;;;;;;;22.60;9.20;;;0.80;92.50;;;;;;5062402;28;20081;-75
2021/12/08 08:22:51;;;;;;;20.10;10.10;;;0.10;92.20;;;;;;5059364;28;20036;-77
2021/12/08 08:25:26;;;;;;;22.33;11.77;;;0.30;92.20;;;;;;5060944;28;20471;-77
2021/12/08 08:27:53;;;;;;;25.43;13.20;;;0.80;91.90;;;;;;5039439;28;20014;-77
2021/12/08 08:30:24;;;;;;;20.73;11.57;;;0.50;91.40;;;;;;5053811;28;20040;-78
2021/12/08 08:32:53;;;;;;;22.10;11.85;;;0.60;91.30;;;;;;5061828;28;20025;-77
2021/12/08 08:35:30;;;;;;;24.67;12.82;;;1.40;91.10;;;;;;5066758;28;20025;-77
2021/12/08 08:38:02;;;;;;;20.83;11.65;;;0.80;90.70;;;;;;5060223;28;20048;-76
2021/12/08 08:40:36;;;;;;;19.98;10.82;;;0.90;91.10;;;;;;5038825;28;20080;-75
2021/12/08 08:43:02;;;;;;;23.92;12.73;;;1.80;90.70;;;;;;5046866;28;20739;-79
2021/12/08 08:45:37;;;;;;;30.65;15.70;;;1.10;90.30;;;;;;5050795;28;20025;-78
2021/12/08 08:48:17;;;;;;;46.03;24.57;;;1.30;89.10;;;;;;5051509;28;20013;-79
2021/12/08 08:50:44;;;;;;;62.90;33.92;;;1.40;89.30;;;;;;5042657;28;20020;-77
2021/12/08 08:53:11;;;;;;;70.93;34.22;;;1.20;90.50;;;;;;5046202;28;20082;-78
2021/12/08 08:55:50;;;;;;;66.00;33.67;;;1.30;90.50;;;;;;5050694;28;20541;-76
2021/12/08 08:58:21;;;;;;;58.47;30.77;;;1.10;90.50;;;;;;5051633;28;20025;-76
2021/12/08 09:01:16;;;;;;;64.95;32.95;;;1.20;90.70;;;;;;5054762;28;20017;-76
2021/12/08 09:03:51;;;;;;;58.80;31.25;;;0.90;90.70;;;;;;5033446;28;20028;-76
2021/12/08 09:06:29;;;;;;;62.50;30.70;;;1.20;90.80;;;;;;5055035;28;20078;-79
2021/12/08 09:09:02;;;;;;;59.47;31.33;;;1.40;90.40;;;;;;5057716;28;20040;-76
2021/12/08 09:11:36;;;;;;;58.60;30.20;;;1.70;89.50;;;;;;5060743;28;20018;-76
2021/12/08 09:14:17;;;;;;;54.72;30.73;;;1.90;89.10;;;;;;5055151;28;20024;-76
2021/12/08 09:16:55;;;;;;;55.22;30.30;;;2.20;88.80;;;;;;5036494;28;20059;-76
2021/12/08 09:19:27;;;;;;;58.83;30.25;;;2.50;86.50;;;;;;5054518;28;20025;-76
2021/12/08 09:22:19;;;;;;;55.20;30.63;;;2.70;85.30;;;;;;5049812;28;20024;-76
2021/12/08 09:24:51;;;;;;;66.55;33.13;;;2.90;84.50;;;;;;5054771;28;20051;-75
2021/12/08 09:27:30;;;;;;;71.75;38.17;;;3.10;84.80;;;;;;5056387;28;20419;-76
2021/12/08 09:30:05;;;;;;;76.28;40.45;;;3.30;83.70;;;;;;5063337;28;20021;-77
2021/12/08 09:32:59;;;;;;;63.80;34.50;;;3.50;82.20;;;;;;5056431;28;20504;-75
2021/12/08 09:35:47;;;;;;;68.90;32.78;;;3.60;81.60;;;;;;5059387;28;20021;-76
2021/12/08 09:38:25;;;;;;;63.03;33.17;;;3.80;81.90;;;;;;5068083;28;20055;-76
2021/12/08 09:41:08;;;;;;;59.55;31.10;;;3.90;80.80;;;;;;5053102;28;20041;-75
2021/12/08 09:43:49;;;;;;;56.17;29.77;;;4.00;79.80;;;;;;5061476;28;20182;-78
2021/12/08 09:46:41;;;;;;;57.65;29.65;;;4.20;78.90;;;;;;5043806;28;20036;-77
2021/12/08 09:49:15;;;;;;;51.53;27.17;;;6.00;79.90;;;;;;5059328;28;20108;-77
2021/12/08 09:51:43;;;;;;;45.45;24.67;;;4.50;76.70;;;;;;5058501;28;20024;-76
2021/12/08 09:54:09;;;;;;;44.75;23.20;;;4.50;76.70;;;;;;5058790;28;20021;-78
2021/12/08 09:56:36;;;;;;;40.63;22.20;;;4.60;77.50;;;;;;5060495;28;20017;-76
2021/12/08 09:59:07;;;;;;;35.67;20.05;;;4.60;76.00;;;;;;5062865;28;20021;-77
2021/12/08 10:01:36;;;;;;;39.95;21.85;;;4.60;77.30;;;;;;5067278;28;20033;-77
2021/12/08 10:04:03;;;;;;;34.10;20.45;;;4.50;78.50;;;;;;5064352;28;20260;-77
2021/12/08 10:06:29;;;;;;;35.70;23.10;;;4.60;78.30;;;;;;5064444;28;20077;-77
2021/12/08 10:08:58;;;;;;;34.05;19.77;;;4.70;78.60;;;;;;5045984;28;20537;-80
2021/12/08 10:11:27;;;;;;;30.80;16.92;;;4.80;78.40;;;;;;5062203;28;20055;-78
2021/12/08 10:13:53;;;;;;;33.35;18.40;;;4.80;75.80;;;;;;5057895;28;20025;-79
2021/12/08 10:16:19;;;;;;;28.10;16.90;;;4.90;76.00;;;;;;5057058;28;20022;-78
2021/12/08 10:18:45;;;;;;;38.35;21.05;;;4.90;77.10;;;;;;5056063;28;20029;-78
2021/12/08 10:21:14;;;;;;;42.00;21.02;;;5.00;78.10;;;;;;5054992;28;20025;-76
2021/12/08 10:23:44;;;;;;;32.85;16.05;;;6.00;79.00;;;;;;5036353;28;20033;-77
2021/12/08 10:26:20;;;;;;;32.28;17.13;;;5.30;76.80;;;;;;5052162;28;20013;-77
2021/12/08 10:28:59;;;;;;;19.85;11.82;;;5.10;76.60;;;;;;5033157;28;20246;-78
2021/12/08 10:31:30;;;;;;;16.23;9.63;;;5.20;76.90;;;;;;5053946;28;20076;-77
2021/12/08 10:36:52;;;;;;;17.45;9.60;;;5.20;77.10;;;;;;5049897;28;20025;-78
2021/12/08 10:39:38;;;;;;;13.25;8.50;;;5.90;75.60;;;;;;5046800;28;20255;-77
2021/12/08 10:42:17;;;;;;;14.82;8.95;;;5.40;74.20;;;;;;5049961;28;20017;-78
2021/12/08 10:45:08;;;;;;;17.38;10.05;;;5.30;74.60;;;;;;5030956;28;20036;-77
2021/12/08 10:47:40;;;;;;;19.35;10.32;;;5.40;77.10;;;;;;5050461;28;20494;-78
2021/12/08 10:55:30;;;;;;;114.50;42.53;;;5.70;76.20;;;;;;5045196;28;20024;-78
2021/12/08 10:57:56;;;;;;;158.15;50.30;;;6.00;76.80;;;;;;5028408;28;20087;-78
2021/12/08 11:00:29;;;;;;;67.32;25.48;;;6.00;76.60;;;;;;5047312;28;20131;-77
2021/12/08 11:03:11;;;;;;;102.88;33.05;;;6.10;77.80;;;;;;5046531;28;20052;-79
2021/12/08 11:05:42;;;;;;;35.95;16.70;;;6.20;75.70;;;;;;5049056;28;20025;-77
2021/12/08 11:08:07;;;;;;;27.05;15.30;;;6.30;76.00;;;;;;5045436;28;20024;-76
2021/12/08 11:10:38;;;;;;;20.50;13.07;;;6.30;75.00;;;;;;5045712;28;20029;-80
2021/12/08 11:13:07;;;;;;;47.33;19.42;;;6.40;75.40;;;;;;5047200;28;20106;-76
2021/12/08 11:15:33;;;;;;;30.75;15.70;;;6.50;74.80;;;;;;5048157;28;20021;-78
2021/12/08 11:18:21;;;;;;;23.70;14.73;;;6.70;71.80;;;;;;5048189;28;20029;-76
2021/12/08 11:21:00;;;;;;;26.00;14.88;;;6.60;69.90;;;;;;5049202;28;20177;-76
2021/12/08 11:23:46;;;;;;;26.67;15.07;;;6.70;69.70;;;;;;5046677;28;20013;-77
2021/12/08 11:26:20;;;;;;;36.10;18.45;;;6.60;68.10;;;;;;5049900;28;20029;-78
2021/12/08 11:29:00;;;;;;;34.47;18.65;;;6.80;70.30;;;;;;5054180;28;20048;-79
2021/12/08 11:31:50;;;;;;;35.10;19.40;;;6.80;69.60;;;;;;5052423;28;20021;-78
2021/12/08 11:34:28;;;;;;;31.88;18.23;;;6.90;68.10;;;;;;5044973;28;20036;-77
2021/12/08 11:37:09;;;;;;;45.17;22.17;;;6.90;70.20;;;;;;5035757;28;20059;-77
2021/12/08 11:39:37;;;;;;;42.60;25.05;;;6.90;69.30;;;;;;5044497;28;20041;-76
2021/12/08 11:42:18;;;;;;;54.75;30.00;;;6.90;68.90;;;;;;5039730;28;20494;-77
2021/12/08 11:44:50;;;;;;;53.63;30.42;;;6.30;72.00;;;;;;5043077;28;20022;-77
2021/12/08 11:47:28;;;;;;;57.00;30.70;;;5.90;74.30;;;;;;5035111;28;20474;-78
2021/12/08 11:49:56;;;;;;;55.40;29.63;;;5.90;75.40;;;;;;5050453;28;20112;-76
2021/12/08 11:52:29;;;;;;;53.08;28.50;;;5.70;76.20;;;;;;5048783;28;20035;-78
2021/12/08 11:55:07;;;;;;;48.50;26.98;;;5.60;77.10;;;;;;5050348;28;20024;-77
2021/12/08 11:57:40;;;;;;;48.60;27.23;;;5.40;77.60;;;;;;5050902;28;20029;-78
2021/12/08 12:00:11;;;;;;;51.47;27.73;;;5.20;78.20;;;;;;5049804;28;20279;-77
2021/12/08 12:02:43;;;;;;;48.40;26.42;;;5.10;79.00;;;;;;5049542;28;20025;-77
2021/12/08 12:05:17;;;;;;;48.78;27.05;;;5.40;79.20;;;;;;5045256;28;20029;-77
2021/12/08 12:07:43;;;;;;;47.28;26.33;;;5.50;79.30;;;;;;5046157;28;20028;-79
2021/12/08 12:10:12;;;;;;;51.83;28.50;;;5.40;78.70;;;;;;5048486;28;20020;-77
2021/12/08 12:12:43;;;;;;;47.65;26.20;;;5.50;78.80;;;;;;5047827;28;20033;-77
2021/12/08 12:15:15;;;;;;;48.03;26.58;;;5.30;79.10;;;;;;5030414;28;20440;-77
2021/12/08 12:17:42;;;;;;;51.10;27.05;;;5.50;80.10;;;;;;5049521;28;20110;-77
2021/12/08 12:20:48;;;;;;;45.47;26.33;;;4.50;78.30;;;;;;5051551;28;20122;-81
2021/12/08 12:23:32;;;;;;;44.90;25.73;;;5.90;79.20;;;;;;5008490;28;20033;-80
2021/12/08 12:26:22;;;;;;;46.50;26.63;;;6.40;78.10;;;;;;5010672;28;20534;-81
2021/12/08 12:29:00;;;;;;;55.28;30.38;;;6.10;77.00;;;;;;5010108;28;20377;-77
2021/12/08 12:31:52;;;;;;;59.08;32.05;;;6.30;76.80;;;;;;5006130;28;20022;-77
2021/12/08 12:34:26;;;;;;;60.08;31.73;;;6.40;76.30;;;;;;4981952;28;20420;-76
2021/12/08 12:37:04;;;;;;;62.88;34.30;;;6.40;76.10;;;;;;5004238;28;20185;-76
2021/12/08 12:39:30;;;;;;;67.22;35.58;;;6.60;76.80;;;;;;5004868;28;20540;-76
2021/12/08 12:41:58;;;;;;;63.25;34.25;;;6.60;76.30;;;;;;4982602;28;20625;-76
2021/12/08 12:44:29;;;;;;;62.85;34.40;;;6.60;76.00;;;;;;4983279;28;20358;-76
2021/12/08 12:47:21;;;;;;;62.28;32.83;;;6.60;75.50;;;;;;5004954;28;20193;-77
2021/12/08 12:50:13;;;;;;;59.65;34.08;;;6.50;75.00;;;;;;5006935;28;20033;-76
2021/12/08 12:52:48;;;;;;;64.50;34.50;;;6.50;76.60;;;;;;5000277;28;20036;-77
2021/12/08 12:55:20;;;;;;;57.53;33.63;;;6.30;75.80;;;;;;5050143;28;20018;-76
2021/12/08 12:58:04;;;;;;;61.15;34.75;;;7.60;77.40;;;;;;5043877;28;20024;-75
2021/12/08 13:00:49;;;;;;;62.28;34.47;;;8.40;78.20;;;;;;5048231;28;20268;-79
2021/12/08 13:03:36;;;;;;;59.13;34.58;;;5.90;76.40;;;;;;5061874;28;20017;-77
2021/12/08 13:06:07;;;;;;;65.18;34.17;;;5.80;78.10;;;;;;5057260;28;20198;-77
2021/12/08 13:08:59;;;;;;;60.00;30.90;;;5.60;80.20;;;;;;5044503;28;20021;-79
2021/12/08 13:11:41;;;;;;;50.65;29.20;;;5.30;81.50;;;;;;5058729;28;20044;-77
2021/12/08 13:14:26;;;;;;;42.97;24.77;;;5.10;82.30;;;;;;5059260;28;20359;-77
2021/12/08 13:17:11;;;;;;;36.55;20.55;;;5.00;84.60;;;;;;5050392;28;20027;-76
2021/12/08 13:19:41;;;;;;;34.17;19.75;;;4.90;83.30;;;;;;5052926;28;20328;-76
2021/12/08 13:22:31;;;;;;;34.28;18.92;;;4.70;83.50;;;;;;5051383;28;20104;-76
2021/12/08 13:25:00;;;;;;;35.83;20.00;;;4.60;84.30;;;;;;5054789;28;20559;-77
2021/12/08 13:27:29;;;;;;;36.72;20.58;;;4.60;85.40;;;;;;5051193;28;20225;-77
2021/12/08 13:30:15;;;;;;;35.38;21.52;;;4.70;87.00;;;;;;5051612;28;20100;-79
2021/12/08 13:32:47;;;;;;;30.63;18.00;;;4.70;88.10;;;;;;5049447;28;20044;-79
2021/12/08 13:35:32;;;;;;;30.02;19.05;;;4.70;87.30;;;;;;5048437;28;20048;-79
2021/12/08 13:37:59;;;;;;;32.53;17.85;;;4.70;86.70;;;;;;5050456;28;20028;-77
2021/12/08 13:40:48;;;;;;;34.55;18.75;;;4.80;87.60;;;;;;5036628;28;20112;-77
2021/12/08 13:43:37;;;;;;;48.58;23.35;;;4.60;88.10;;;;;;5048314;28;20028;-76
2021/12/08 13:46:08;;;;;;;54.30;28.30;;;4.50;87.20;;;;;;5050480;28;20028;-78
2021/12/08 13:48:35;;;;;;;43.80;23.55;;;4.50;88.10;;;;;;5041342;28;20027;-79
2021/12/08 13:51:15;;;;;;;50.72;26.90;;;4.40;88.50;;;;;;5042510;28;20028;-78
2021/12/08 13:53:41;;;;;;;61.60;32.35;;;4.40;88.70;;;;;;5042893;28;20569;-77